Time;durP1;ratioP1;P1;durP2;ratioP2;P2;SDS_P1;SDS_P2;PMS_P1;PMS_P2;Temp;Humidity;BMP_temperature;BMP_pressure;BME280_temperature;BME280_humidity;BME280_pressure;Samples;Min_cycle;Max_cycle;Signal;HPM_P1;HPM_P2
2024/01/16 00:02:21;;;;;;;18.50;7.78;;;;;;;1.54;74.35;92434.91;5082618;28;20025;-74
2024/01/16 00:04:47;;;;;;;18.02;8.57;;;;;;;1.54;74.83;92437.53;5082921;28;20024;-74
2024/01/16 00:07:13;;;;;;;20.35;8.65;;;;;;;1.52;74.33;92443.06;5082675;28;20039;-74
2024/01/16 00:09:38;;;;;;;18.73;9.38;;;;;;;1.52;74.80;92448.31;5082517;28;20028;-74
2024/01/16 00:12:04;;;;;;;19.63;8.60;;;;;;;1.52;75.12;92431.78;5081894;28;20056;-74
2024/01/16 00:14:30;;;;;;;18.67;9.00;;;;;;;1.57;75.33;92427.22;5082615;28;20024;-74
2024/01/16 00:16:55;;;;;;;22.00;9.05;;;;;;;1.59;75.44;92426.94;5082398;28;20017;-74
2024/01/16 00:19:20;;;;;;;19.55;8.48;;;;;;;1.73;74.11;92437.41;5082729;28;20239;-74
2024/01/16 00:21:46;;;;;;;20.70;9.25;;;;;;;1.75;74.53;92436.06;5082814;28;20315;-75
2024/01/16 00:24:12;;;;;;;19.55;8.25;;;;;;;1.83;73.84;92444.31;5082557;28;20119;-75
2024/01/16 00:26:38;;;;;;;16.55;8.43;;;;;;;1.75;74.56;92435.28;5082462;28;20066;-75
2024/01/16 00:29:03;;;;;;;16.00;8.30;;;;;;;1.80;74.83;92438.59;5082435;28;20021;-75
2024/01/16 00:31:29;;;;;;;16.33;7.80;;;;;;;1.88;74.31;92452.13;5082656;28;20032;-75
2024/01/16 00:33:54;;;;;;;17.98;8.88;;;;;;;1.82;73.71;92445.41;5082522;28;20028;-75
2024/01/16 00:36:20;;;;;;;14.85;7.85;;;;;;;1.90;73.76;92455.22;5082710;28;20083;-76
2024/01/16 00:38:46;;;;;;;17.38;8.18;;;;;;;1.95;74.02;92444.59;5082446;28;20024;-76
2024/01/16 00:41:14;;;;;;;15.15;7.93;;;;;;;2.00;72.71;92447.16;5082378;28;20028;-76
2024/01/16 00:43:40;;;;;;;16.30;7.47;;;;;;;1.97;71.60;92458.22;5082440;28;20397;-76
2024/01/16 00:46:06;;;;;;;15.73;7.85;;;;;;;1.94;71.67;92474.59;5082267;28;20020;-76
2024/01/16 00:48:31;;;;;;;20.65;6.93;;;;;;;1.97;71.42;92476.63;5082328;28;20008;-76
2024/01/16 00:50:57;;;;;;;13.05;7.47;;;;;;;1.98;71.58;92467.69;5082342;28;20099;-74
2024/01/16 00:53:22;;;;;;;18.00;6.97;;;;;;;2.04;71.53;92466.50;5082290;28;20016;-74
2024/01/16 00:55:48;;;;;;;17.20;7.32;;;;;;;2.13;71.69;92475.25;5082198;28;20044;-75
2024/01/16 00:58:13;;;;;;;26.45;9.48;;;;;;;2.19;70.94;92481.19;5082237;28;20028;-74
2024/01/16 01:00:38;;;;;;;14.68;7.78;;;;;;;2.21;70.26;92482.44;5081057;28;20146;-74
2024/01/16 01:03:04;;;;;;;15.13;6.32;;;;;;;2.14;70.87;92494.44;5082094;28;20027;-74
2024/01/16 01:05:30;;;;;;;16.90;7.38;;;;;;;2.04;71.11;92474.41;5082110;28;20215;-74
2024/01/16 01:07:56;;;;;;;15.02;7.13;;;;;;;2.14;71.82;92499.69;5082047;28;20016;-74
2024/01/16 01:10:22;;;;;;;15.57;7.10;;;;;;;2.13;72.46;92488.38;5081988;28;20055;-74
2024/01/16 01:12:48;;;;;;;15.30;7.88;;;;;;;2.18;73.05;92506.69;5082233;28;20028;-74
2024/01/16 01:15:13;;;;;;;14.05;6.75;;;;;;;2.26;73.45;92468.44;5082008;28;20081;-74
2024/01/16 01:17:40;;;;;;;21.33;8.85;;;;;;;2.33;73.52;92502.97;5082072;28;20013;-74
2024/01/16 01:20:06;;;;;;;13.38;6.57;;;;;;;2.28;72.38;92476.00;5081876;28;20091;-74
2024/01/16 01:22:32;;;;;;;14.15;6.70;;;;;;;2.35;72.64;92515.84;5083644;28;20070;-74
2024/01/16 01:24:58;;;;;;;13.27;7.03;;;;;;;2.36;72.56;92504.22;5085688;28;20020;-74
2024/01/16 01:27:23;;;;;;;15.43;7.05;;;;;;;2.37;73.05;92498.69;5085600;28;20016;-74
2024/01/16 01:29:49;;;;;;;16.73;7.72;;;;;;;2.41;73.29;92498.88;5085759;28;20028;-74
2024/01/16 01:32:14;;;;;;;16.10;7.22;;;;;;;2.43;72.66;92475.69;5085600;28;20281;-75
2024/01/16 01:34:41;;;;;;;17.30;8.35;;;;;;;2.50;72.58;92481.31;5085247;28;20257;-75
2024/01/16 01:37:07;;;;;;;21.42;10.00;;;;;;;2.56;73.74;92495.91;5085322;28;20020;-75
2024/01/16 01:39:33;;;;;;;21.63;9.48;;;;;;;2.56;73.89;92474.88;5085362;28;20025;-76
2024/01/16 01:41:58;;;;;;;16.02;7.63;;;;;;;2.64;74.44;92472.63;5085260;28;20290;-75
2024/01/16 01:44:24;;;;;;;18.05;7.32;;;;;;;2.74;75.51;92465.28;5085251;28;20223;-75
2024/01/16 01:46:51;;;;;;;14.10;6.65;;;;;;;2.81;75.73;92467.50;5085499;28;20025;-75
2024/01/16 01:49:16;;;;;;;13.75;6.65;;;;;;;2.85;75.95;92465.84;5084275;28;20265;-75
2024/01/16 01:51:43;;;;;;;16.50;6.72;;;;;;;2.85;76.63;92476.34;5085384;28;20016;-75
2024/01/16 01:54:10;;;;;;;15.85;7.70;;;;;;;2.89;76.79;92472.06;5085101;28;20282;-75
2024/01/16 01:56:36;;;;;;;19.42;7.57;;;;;;;2.97;76.99;92463.44;5085423;28;20095;-75
2024/01/16 01:59:02;;;;;;;15.73;6.93;;;;;;;3.05;76.91;92469.06;5084957;28;20020;-76
2024/01/16 02:01:31;;;;;;;17.33;8.48;;;;;;;3.05;77.35;92471.69;5084970;28;20085;-75
2024/01/16 02:03:59;;;;;;;16.73;7.38;;;;;;;3.06;77.39;92471.38;5085130;28;20087;-75
2024/01/16 02:06:24;;;;;;;15.93;6.70;;;;;;;3.09;77.88;92470.00;5084715;28;20215;-75
2024/01/16 02:08:51;;;;;;;13.45;6.22;;;;;;;3.09;78.08;92489.19;5085158;28;20089;-76
2024/01/16 02:11:16;;;;;;;11.07;5.30;;;;;;;3.07;78.60;92493.22;5084761;28;20067;-75
2024/01/16 02:13:42;;;;;;;12.82;6.35;;;;;;;3.14;79.08;92493.59;5084807;28;20020;-76
2024/01/16 02:16:24;;;;;;;13.90;5.32;;;;;;;3.19;79.09;92482.94;5084618;28;20070;-76
2024/01/16 02:18:51;;;;;;;13.25;5.90;;;;;;;3.26;79.28;92480.66;5084757;28;20027;-76
2024/01/16 02:21:28;;;;;;;12.65;6.03;;;;;;;3.26;79.45;92475.41;5084811;28;20055;-76
2024/01/16 02:23:53;;;;;;;10.05;4.82;;;;;;;3.19;80.10;92483.69;5084694;28;20040;-77
2024/01/16 02:26:19;;;;;;;13.05;5.65;;;;;;;3.19;80.46;92496.09;5084587;28;20020;-77
2024/01/16 02:28:45;;;;;;;9.85;5.25;;;;;;;3.18;80.83;92497.19;5084615;28;20085;-77
2024/01/16 02:31:11;;;;;;;9.98;4.90;;;;;;;3.20;81.28;92500.28;5084390;28;20381;-76
2024/01/16 02:33:37;;;;;;;9.35;4.20;;;;;;;3.25;81.28;92510.69;5083589;28;20110;-76
2024/01/16 02:36:03;;;;;;;8.73;4.47;;;;;;;3.29;81.61;92506.38;5084198;28;20310;-76
2024/01/16 02:38:29;;;;;;;8.57;4.07;;;;;;;3.32;81.27;92499.75;5084163;28;20027;-75
2024/01/16 02:40:54;;;;;;;8.52;4.22;;;;;;;3.37;81.56;92500.38;5084252;28;20031;-75
2024/01/16 02:43:20;;;;;;;9.13;3.58;;;;;;;3.45;81.10;92498.88;5084416;28;20083;-76
2024/01/16 02:45:45;;;;;;;8.32;4.00;;;;;;;3.51;80.71;92512.72;5084105;28;20047;-76
2024/01/16 02:48:11;;;;;;;8.88;4.35;;;;;;;3.58;80.54;92505.16;5083914;28;20028;-76
2024/01/16 02:50:38;;;;;;;8.27;3.38;;;;;;;3.59;80.24;92512.75;5084032;28;20020;-75
2024/01/16 02:53:04;;;;;;;8.18;3.80;;;;;;;3.67;79.96;92531.56;5084139;28;20052;-76
2024/01/16 02:55:29;;;;;;;7.13;3.53;;;;;;;3.67;79.65;92534.97;5083889;28;20223;-75
2024/01/16 02:57:55;;;;;;;5.72;3.17;;;;;;;3.74;79.72;92561.66;5083973;28;20123;-76
2024/01/16 03:00:20;;;;;;;8.57;3.97;;;;;;;3.74;79.36;92588.00;5083993;28;20393;-75
2024/01/16 03:02:45;;;;;;;14.82;5.40;;;;;;;3.68;78.90;92609.53;5083837;28;20024;-75
2024/01/16 03:05:11;;;;;;;12.88;5.82;;;;;;;3.61;77.14;92625.75;5083763;28;20047;-75
2024/01/16 03:07:36;;;;;;;14.35;6.40;;;;;;;3.39;77.21;92619.38;5083708;28;20062;-75
2024/01/16 03:10:03;;;;;;;12.77;6.15;;;;;;;3.29;78.35;92616.97;5083810;28;20236;-75
2024/01/16 03:12:28;;;;;;;12.35;5.65;;;;;;;3.28;79.03;92636.50;5083590;28;20040;-76
2024/01/16 03:14:54;;;;;;;10.75;5.53;;;;;;;3.13;79.99;92631.56;5083678;28;20032;-75
2024/01/16 03:17:20;;;;;;;14.93;5.95;;;;;;;3.13;80.04;92642.09;5083814;28;20028;-76
2024/01/16 03:19:45;;;;;;;13.27;5.82;;;;;;;3.06;81.07;92660.16;5083722;28;20259;-76
2024/01/16 03:22:11;;;;;;;13.02;5.78;;;;;;;3.04;81.33;92649.91;5082279;28;20246;-76
2024/01/16 03:24:36;;;;;;;10.18;5.07;;;;;;;3.01;82.64;92695.25;5083603;28;20035;-76
2024/01/16 03:27:02;;;;;;;5.78;3.53;;;;;;;3.05;88.05;92684.91;5083462;28;20083;-76
2024/01/16 03:29:27;;;;;;;6.55;3.67;;;;;;;3.07;88.86;92682.75;5083361;28;20366;-76
2024/01/16 03:31:53;;;;;;;6.65;3.50;;;;;;;3.08;89.98;92694.88;5083617;28;20076;-76
2024/01/16 03:34:19;;;;;;;6.75;2.83;;;;;;;3.05;91.12;92698.84;5083713;28;20077;-75
2024/01/16 03:36:44;;;;;;;6.60;2.80;;;;;;;2.87;92.22;92695.28;5082008;28;20078;-75
2024/01/16 03:39:10;;;;;;;5.18;2.90;;;;;;;2.72;93.12;92713.97;5081928;28;20082;-75
2024/01/16 03:41:35;;;;;;;6.15;2.95;;;;;;;2.73;93.19;92710.28;5083263;28;20028;-75
2024/01/16 03:44:01;;;;;;;6.68;3.25;;;;;;;2.63;93.94;92721.78;5083271;28;20039;-75
2024/01/16 03:46:26;;;;;;;5.15;2.92;;;;;;;2.53;94.55;92721.94;5081081;28;20052;-75
2024/01/16 03:48:52;;;;;;;6.15;2.70;;;;;;;2.43;94.67;92720.28;5083023;28;20013;-75
2024/01/16 03:51:19;;;;;;;5.68;3.30;;;;;;;2.34;94.86;92733.31;5083124;28;20027;-75
2024/01/16 03:53:45;;;;;;;5.07;2.75;;;;;;;2.23;95.60;92737.16;5083158;28;20024;-75
2024/01/16 03:56:10;;;;;;;4.25;2.72;;;;;;;2.10;95.41;92751.84;5081724;28;20220;-75
2024/01/16 03:58:36;;;;;;;5.05;2.70;;;;;;;2.00;94.78;92758.03;5082907;28;20223;-75
2024/01/16 04:01:01;;;;;;;4.30;2.55;;;;;;;1.94;93.92;92753.91;5082962;28;20319;-75
2024/01/16 04:03:27;;;;;;;5.45;2.42;;;;;;;1.77;93.11;92753.63;5082988;28;20039;-75
2024/01/16 04:05:52;;;;;;;2.80;1.73;;;;;;;1.80;92.65;92764.38;5082889;28;20031;-75
2024/01/16 04:08:18;;;;;;;3.75;1.88;;;;;;;1.80;92.49;92774.88;5083124;28;20176;-75
2024/01/16 04:10:44;;;;;;;4.28;2.60;;;;;;;1.82;92.42;92781.69;5082769;28;20066;-75
2024/01/16 04:13:09;;;;;;;5.43;2.22;;;;;;;1.83;92.54;92778.78;5083028;28;20342;-75
2024/01/16 04:15:40;;;;;;;4.22;2.40;;;;;;;1.82;92.55;92800.09;5082895;28;20025;-75
2024/01/16 04:18:06;;;;;;;3.97;2.08;;;;;;;1.78;92.54;92807.75;5082513;28;20020;-76
2024/01/16 04:20:33;;;;;;;4.53;2.25;;;;;;;1.67;93.01;92801.88;5082646;28;20055;-76
2024/01/16 04:22:58;;;;;;;3.08;2.25;;;;;;;1.67;93.24;92809.75;5082814;28;20024;-76
2024/01/16 04:25:24;;;;;;;3.00;1.75;;;;;;;1.69;93.23;92810.25;5082783;28;20029;-76
2024/01/16 04:27:50;;;;;;;6.28;2.97;;;;;;;1.68;92.97;92808.66;5082966;28;20088;-74
2024/01/16 04:30:16;;;;;;;3.55;2.08;;;;;;;1.58;92.54;92811.44;5081418;28;20028;-74
2024/01/16 04:32:41;;;;;;;3.90;2.17;;;;;;;1.57;92.32;92812.50;5082675;28;20070;-75
2024/01/16 04:35:08;;;;;;;3.20;1.85;;;;;;;1.47;92.62;92820.50;5082609;28;20200;-74
2024/01/16 04:37:34;;;;;;;3.83;2.05;;;;;;;1.37;92.89;92818.78;5082344;28;20051;-74
2024/01/16 04:39:59;;;;;;;6.75;2.58;;;;;;;1.31;93.24;92818.06;5081404;28;20029;-75
2024/01/16 04:42:25;;;;;;;6.60;2.10;;;;;;;1.34;93.49;92817.50;5082558;28;20028;-74
2024/01/16 04:44:51;;;;;;;2.88;1.77;;;;;;;1.31;93.41;92827.78;5082616;28;20024;-74
2024/01/16 04:47:16;;;;;;;3.90;1.85;;;;;;;1.31;92.78;92851.41;5082181;28;20114;-74
2024/01/16 04:49:43;;;;;;;5.38;1.58;;;;;;;1.29;92.36;92843.81;5080895;28;20028;-74
2024/01/16 04:52:08;;;;;;;3.47;1.80;;;;;;;1.26;92.32;92846.97;5082196;28;20028;-74
2024/01/16 04:54:33;;;;;;;3.58;1.80;;;;;;;1.27;92.15;92856.44;5082263;28;20070;-74
2024/01/16 04:56:59;;;;;;;2.50;1.55;;;;;;;1.26;91.36;92867.97;5083288;28;20038;-74
2024/01/16 04:59:24;;;;;;;4.68;2.03;;;;;;;1.25;91.60;92879.56;5086129;28;20200;-74
2024/01/16 05:01:51;;;;;;;5.00;1.83;;;;;;;1.23;91.39;92883.53;5086306;28;20017;-74
2024/01/16 05:04:16;;;;;;;3.35;1.73;;;;;;;1.18;91.94;92890.41;5086361;28;20036;-74
2024/01/16 05:06:42;;;;;;;2.78;1.52;;;;;;;1.27;91.58;92903.69;5085972;28;20024;-74
2024/01/16 05:09:09;;;;;;;3.78;2.08;;;;;;;1.31;91.43;92899.44;5086136;28;20028;-74
2024/01/16 05:11:34;;;;;;;2.40;1.42;;;;;;;1.28;91.49;92921.00;5085890;28;20331;-74
2024/01/16 05:14:00;;;;;;;3.33;1.70;;;;;;;1.28;90.98;92926.25;5085938;28;20062;-74
2024/01/16 05:16:26;;;;;;;4.35;1.73;;;;;;;1.25;90.91;92939.16;5085925;28;20028;-74
2024/01/16 05:18:52;;;;;;;3.80;1.83;;;;;;;1.27;90.73;92942.28;5085800;28;20192;-74
2024/01/16 05:21:17;;;;;;;6.38;1.73;;;;;;;1.15;90.29;92937.41;5085823;28;20020;-74
2024/01/16 05:23:43;;;;;;;6.03;2.25;;;;;;;1.18;90.32;92950.75;5085768;28;20072;-75
2024/01/16 05:26:08;;;;;;;3.53;1.65;;;;;;;1.14;90.57;92951.56;5085685;28;20091;-74
2024/01/16 05:28:34;;;;;;;2.53;1.55;;;;;;;1.05;91.52;92995.22;5085953;28;20126;-74
2024/01/16 05:31:00;;;;;;;5.10;1.60;;;;;;;0.92;90.34;92991.41;5085676;28;20032;-75
2024/01/16 05:33:25;;;;;;;4.10;1.70;;;;;;;0.93;90.35;92993.72;5085536;28;20063;-75
2024/01/16 05:35:51;;;;;;;2.90;1.63;;;;;;;0.91;89.56;92998.47;5085765;28;20327;-75
2024/01/16 05:38:16;;;;;;;2.08;1.30;;;;;;;0.86;89.46;92987.25;5085653;28;20062;-75
2024/01/16 05:40:42;;;;;;;2.85;1.48;;;;;;;0.82;88.53;92999.34;5085509;28;20038;-75
2024/01/16 05:43:08;;;;;;;2.53;1.30;;;;;;;0.82;87.76;93010.63;5085504;28;20215;-75
2024/01/16 05:45:33;;;;;;;1.70;0.90;;;;;;;0.81;86.15;93032.63;5085351;28;20046;-75
2024/01/16 05:47:59;;;;;;;1.77;0.90;;;;;;;0.71;85.78;93028.28;5085120;28;20019;-74
2024/01/16 05:50:24;;;;;;;1.50;0.90;;;;;;;0.75;85.72;93046.84;5085074;28;20103;-75
2024/01/16 05:52:50;;;;;;;2.58;1.00;;;;;;;0.75;83.38;93039.78;5084293;28;20032;-75
2024/01/16 05:55:15;;;;;;;2.85;0.82;;;;;;;0.81;83.63;93045.75;5085183;28;20020;-77
2024/01/16 05:57:43;;;;;;;1.95;1.17;;;;;;;0.84;84.03;93047.84;5085080;28;20029;-76
2024/01/16 06:00:09;;;;;;;1.90;1.08;;;;;;;0.77;81.75;93053.41;5085103;28;20242;-76
2024/01/16 06:02:35;;;;;;;2.28;1.20;;;;;;;0.85;82.00;93065.16;5084949;28;20061;-76
2024/01/16 06:05:00;;;;;;;2.00;0.90;;;;;;;0.89;81.68;93066.19;5085183;28;20319;-76
2024/01/16 06:07:25;;;;;;;2.05;1.20;;;;;;;0.93;81.84;93080.31;5084978;28;20087;-75
2024/01/16 06:09:51;;;;;;;3.63;1.00;;;;;;;0.96;82.16;93071.91;5082664;28;20077;-76
2024/01/16 06:12:16;;;;;;;1.92;1.02;;;;;;;1.02;82.00;93087.63;5084731;28;20044;-75
2024/01/16 06:14:42;;;;;;;2.45;1.02;;;;;;;1.04;82.07;93085.50;5084919;28;20033;-75
2024/01/16 06:17:08;;;;;;;2.65;1.27;;;;;;;1.03;82.01;93103.09;5083757;28;20066;-75
2024/01/16 06:19:33;;;;;;;2.20;0.90;;;;;;;0.99;81.39;93105.47;5084814;28;20092;-75
2024/01/16 06:21:59;;;;;;;2.33;1.02;;;;;;;0.90;81.62;93114.97;5084686;28;20028;-75
2024/01/16 06:24:25;;;;;;;2.13;1.00;;;;;;;0.94;82.14;93115.22;5084449;28;20025;-75
2024/01/16 06:26:50;;;;;;;1.80;0.90;;;;;;;0.91;81.51;93111.28;5085064;28;20038;-75
2024/01/16 06:29:16;;;;;;;3.33;1.40;;;;;;;0.90;82.00;93114.97;5084721;28;20091;-75
2024/01/16 06:31:41;;;;;;;4.95;1.50;;;;;;;0.85;81.58;93116.84;5084521;28;20048;-74
2024/01/16 06:34:06;;;;;;;2.85;1.60;;;;;;;0.93;80.41;93124.16;5084500;28;20069;-74
2024/01/16 06:36:32;;;;;;;2.83;1.40;;;;;;;1.03;78.23;93131.19;5083284;28;20031;-74
2024/01/16 06:38:58;;;;;;;2.75;1.30;;;;;;;1.09;76.27;93132.72;5084327;28;20032;-74
2024/01/16 06:41:23;;;;;;;1.90;1.10;;;;;;;1.09;74.42;93140.59;5084737;28;20025;-75
2024/01/16 06:43:49;;;;;;;2.22;1.30;;;;;;;1.05;72.98;93144.81;5084651;28;20319;-75
2024/01/16 06:46:14;;;;;;;2.28;1.15;;;;;;;1.17;74.97;93155.78;5084143;28;20361;-75
2024/01/16 06:48:39;;;;;;;2.80;1.50;;;;;;;1.18;75.06;93186.19;5084207;28;20096;-75
2024/01/16 06:51:05;;;;;;;6.28;1.48;;;;;;;1.15;74.60;93189.38;5083908;28;20338;-74
2024/01/16 06:53:30;;;;;;;3.85;1.50;;;;;;;1.12;73.95;93177.59;5083997;28;20027;-74
2024/01/16 06:55:56;;;;;;;2.63;1.30;;;;;;;1.13;73.12;93194.13;5083970;28;20103;-73
2024/01/16 06:58:21;;;;;;;4.40;1.50;;;;;;;1.03;72.49;93199.41;5084109;28;20028;-73
2024/01/16 07:00:47;;;;;;;1.88;1.20;;;;;;;0.99;73.26;93213.06;5084449;28;20031;-73
2024/01/16 07:03:13;;;;;;;2.47;1.38;;;;;;;0.93;72.71;93222.00;5083788;28;20020;-73
2024/01/16 07:05:40;;;;;;;3.70;1.17;;;;;;;0.84;73.17;93205.25;5083679;28;20391;-73
2024/01/16 07:08:06;;;;;;;3.08;1.27;;;;;;;0.86;73.25;93207.63;5083745;28;20091;-73
2024/01/16 07:10:32;;;;;;;1.20;0.88;;;;;;;0.82;72.73;93204.75;5082495;28;20024;-72
2024/01/16 07:12:57;;;;;;;2.10;0.80;;;;;;;0.78;72.58;93216.84;5084328;28;20028;-73
2024/01/16 07:15:23;;;;;;;1.30;0.85;;;;;;;0.84;72.67;93230.72;5084155;28;20214;-73
2024/01/16 07:17:48;;;;;;;2.38;1.10;;;;;;;0.83;72.10;93235.16;5084003;28;20035;-73
2024/01/16 07:20:14;;;;;;;1.48;0.70;;;;;;;0.82;72.41;93265.09;5083761;28;20047;-73
2024/01/16 07:22:39;;;;;;;2.15;0.77;;;;;;;0.76;72.48;93258.28;5084171;28;20095;-73
2024/01/16 07:25:06;;;;;;;1.73;0.80;;;;;;;0.78;72.83;93274.53;5083908;28;20020;-73
2024/01/16 07:27:31;;;;;;;2.33;0.85;;;;;;;0.68;72.95;93271.94;5083666;28;20091;-73
2024/01/16 07:29:56;;;;;;;2.97;0.95;;;;;;;0.57;72.49;93284.28;5082303;28;20192;-73
2024/01/16 07:32:22;;;;;;;2.00;0.63;;;;;;;0.53;73.14;93293.72;5083495;28;20044;-74
2024/01/16 07:34:47;;;;;;;2.00;0.90;;;;;;;0.59;73.49;93285.59;5083574;28;20296;-72
2024/01/16 07:37:13;;;;;;;2.70;1.00;;;;;;;0.65;73.74;93296.06;5082815;28;20078;-72
2024/01/16 07:39:39;;;;;;;2.28;1.48;;;;;;;0.60;73.85;93299.50;5082342;28;20226;-74
2024/01/16 07:42:04;;;;;;;1.58;0.75;;;;;;;0.67;73.58;93307.88;5082018;28;20342;-74
2024/01/16 07:44:29;;;;;;;2.88;1.23;;;;;;;0.70;73.03;93298.69;5082222;28;20040;-73
2024/01/16 07:46:55;;;;;;;1.88;0.90;;;;;;;0.73;72.89;93306.81;5083456;28;20016;-72
2024/01/16 07:49:20;;;;;;;1.55;1.00;;;;;;;0.68;73.05;93317.31;5083457;28;20024;-74
2024/01/16 07:51:46;;;;;;;2.17;0.93;;;;;;;0.63;72.88;93314.69;5081724;28;20103;-72
2024/01/16 07:54:13;;;;;;;1.65;0.75;;;;;;;0.71;72.95;93323.84;5081404;28;20032;-72
2024/01/16 07:56:38;;;;;;;1.55;0.90;;;;;;;0.70;73.46;93336.19;5082288;28;20020;-72
2024/01/16 07:59:04;;;;;;;0.93;0.70;;;;;;;0.72;73.56;93338.56;5082237;28;20024;-72
2024/01/16 08:01:29;;;;;;;1.83;0.80;;;;;;;0.76;73.00;93336.97;5082163;28;20017;-72
2024/01/16 08:03:56;;;;;;;3.50;1.25;;;;;;;0.75;73.45;93338.03;5082352;28;20039;-72
2024/01/16 08:06:22;;;;;;;3.47;1.50;;;;;;;0.82;74.16;93346.41;5082930;28;20039;-72
2024/01/16 08:08:48;;;;;;;2.05;1.05;;;;;;;0.86;73.27;93350.09;5083077;28;20314;-72
2024/01/16 08:11:14;;;;;;;2.00;0.93;;;;;;;0.78;72.80;93358.50;5082762;28;20032;-73
2024/01/16 08:13:39;;;;;;;1.80;0.73;;;;;;;0.83;72.75;93352.44;5082898;28;20023;-72
2024/01/16 08:16:05;;;;;;;3.30;1.38;;;;;;;0.86;73.60;93365.06;5082898;28;20287;-72
2024/01/16 08:18:31;;;;;;;2.28;1.20;;;;;;;0.94;73.68;93367.91;5082702;28;20027;-72
2024/01/16 08:20:57;;;;;;;1.75;1.10;;;;;;;0.98;72.75;93378.69;5082814;28;20024;-72
2024/01/16 08:23:22;;;;;;;2.15;0.90;;;;;;;0.82;72.29;93409.38;5082706;28;20047;-73
2024/01/16 08:25:48;;;;;;;1.88;1.00;;;;;;;0.83;72.92;93403.06;5083153;28;20021;-73
2024/01/16 08:28:14;;;;;;;4.40;0.80;;;;;;;0.91;72.45;93402.53;5082851;28;20062;-73
2024/01/16 08:30:40;;;;;;;1.45;0.75;;;;;;;0.87;71.93;93398.09;5083264;28;20319;-73
2024/01/16 08:33:05;;;;;;;3.33;1.35;;;;;;;0.90;72.39;93414.09;5088877;28;20062;-74
2024/01/16 08:35:30;;;;;;;3.20;1.42;;;;;;;0.86;72.04;93431.44;5089635;28;20027;-73
2024/01/16 08:37:56;;;;;;;3.05;1.13;;;;;;;0.86;72.56;93420.16;5089401;28;20059;-72
2024/01/16 08:40:21;;;;;;;2.78;1.50;;;;;;;0.80;72.25;93432.47;5089478;28;20024;-73
2024/01/16 08:42:51;;;;;;;4.00;1.73;;;;;;;0.80;72.35;93437.72;5089576;28;20028;-72
2024/01/16 08:45:17;;;;;;;4.38;2.00;;;;;;;0.73;73.06;93445.06;5089526;28;20032;-73
2024/01/16 08:47:42;;;;;;;5.18;1.90;;;;;;;0.69;73.22;93446.63;5089470;28;20085;-72
2024/01/16 08:50:09;;;;;;;2.28;1.30;;;;;;;0.67;73.39;93435.59;5089565;28;20021;-72
2024/01/16 08:52:35;;;;;;;8.35;2.00;;;;;;;0.62;74.32;93448.72;5089314;28;20020;-73
2024/01/16 08:55:01;;;;;;;3.33;1.73;;;;;;;0.66;73.68;93449.78;5089155;28;20024;-73
2024/01/16 08:57:26;;;;;;;3.22;1.67;;;;;;;0.57;73.48;93452.91;5089206;28;20028;-72
2024/01/16 08:59:52;;;;;;;3.35;1.42;;;;;;;0.62;73.67;93459.22;5089149;28;20047;-72
2024/01/16 09:02:18;;;;;;;2.47;1.67;;;;;;;0.61;73.97;93455.78;5089505;28;20021;-73
2024/01/16 09:04:45;;;;;;;4.72;1.67;;;;;;;0.64;73.22;93452.66;5089220;28;20046;-73
2024/01/16 09:07:11;;;;;;;6.60;1.40;;;;;;;0.69;73.11;93459.75;5089074;28;20024;-73
2024/01/16 09:09:36;;;;;;;3.45;1.20;;;;;;;0.66;72.95;93468.16;5088935;28;20091;-73
2024/01/16 09:12:03;;;;;;;1.95;1.10;;;;;;;0.67;72.16;93456.59;5089146;28;20239;-73
2024/01/16 09:14:28;;;;;;;1.48;0.65;;;;;;;0.74;71.69;93462.38;5089195;28;20028;-74
2024/01/16 09:16:54;;;;;;;2.13;0.90;;;;;;;0.82;71.74;93474.97;5088995;28;20071;-73
2024/01/16 09:19:19;;;;;;;1.45;0.95;;;;;;;0.84;70.62;93459.75;5089150;28;20088;-73
2024/01/16 09:21:45;;;;;;;2.10;0.95;;;;;;;0.88;70.79;93467.91;5089070;28;20020;-73
2024/01/16 09:24:12;;;;;;;4.93;1.48;;;;;;;0.97;71.48;93461.84;5088768;28;20369;-74
2024/01/16 09:26:38;;;;;;;4.03;1.55;;;;;;;0.93;70.90;93478.38;5089062;28;20052;-74
2024/01/16 09:29:03;;;;;;;7.50;1.48;;;;;;;0.92;70.59;93480.22;5088796;28;20024;-73
2024/01/16 09:31:28;;;;;;;6.80;1.80;;;;;;;0.90;70.29;93487.56;5088880;28;20079;-73
2024/01/16 09:33:54;;;;;;;3.92;1.75;;;;;;;0.93;70.44;93487.03;5088700;28;20322;-73
2024/01/16 09:36:19;;;;;;;10.70;1.77;;;;;;;0.98;69.96;93479.19;5087837;28;20032;-74
2024/01/16 09:38:44;;;;;;;7.45;4.07;;;;;;;1.07;69.95;93471.56;5088591;28;20036;-73
2024/01/16 09:41:10;;;;;;;3.85;1.30;;;;;;;1.08;68.78;93470.53;5088779;28;20039;-73
2024/01/16 09:43:37;;;;;;;3.60;1.60;;;;;;;1.13;69.18;93464.47;5085925;28;20261;-73
2024/01/16 09:46:04;;;;;;;11.20;2.28;;;;;;;1.33;69.72;93472.34;5085567;28;20035;-72
2024/01/16 09:48:31;;;;;;;4.70;2.15;;;;;;;1.52;68.16;93485.69;5085408;28;20023;-73
2024/01/16 09:50:57;;;;;;;6.22;1.63;;;;;;;1.51;68.58;93483.34;5085334;28;20021;-72
2024/01/16 09:53:22;;;;;;;3.85;1.38;;;;;;;1.62;67.49;93492.00;5085317;28;20032;-73
2024/01/16 09:55:50;;;;;;;4.57;1.35;;;;;;;1.54;67.42;93490.69;5085604;28;20091;-73
2024/01/16 09:58:20;;;;;;;3.83;1.40;;;;;;;1.53;66.92;93489.91;5085383;28;20028;-72
2024/01/16 10:00:46;;;;;;;3.25;1.10;;;;;;;1.46;66.41;93483.34;5085377;28;20048;-73
2024/01/16 10:03:13;;;;;;;2.78;1.10;;;;;;;1.40;67.06;93474.69;5085299;28;20326;-72
2024/01/16 10:05:43;;;;;;;5.20;1.48;;;;;;;1.42;67.58;93479.69;5085081;28;20024;-72
2024/01/16 10:08:08;;;;;;;5.60;1.10;;;;;;;1.56;66.93;93478.09;5085136;28;20203;-73
2024/01/16 10:10:34;;;;;;;2.22;0.90;;;;;;;1.57;66.38;93471.78;5084866;28;20020;-72
2024/01/16 10:13:00;;;;;;;4.82;1.40;;;;;;;1.72;67.05;93477.00;5084855;28;20050;-73
2024/01/16 10:15:25;;;;;;;8.82;1.40;;;;;;;1.82;66.39;93485.91;5084737;28;20020;-73
2024/01/16 10:17:52;;;;;;;5.57;1.80;;;;;;;1.94;67.15;93473.25;5083404;28;20027;-73
2024/01/16 10:20:31;;;;;;;11.05;1.88;;;;;;;2.07;65.78;93488.44;5084954;28;20074;-73
2024/01/16 10:22:58;;;;;;;3.22;1.55;;;;;;;1.98;64.16;93501.38;5084725;28;20043;-73
2024/01/16 10:25:24;;;;;;;3.83;1.35;;;;;;;1.86;64.72;93498.25;5084428;28;20091;-73
2024/01/16 10:28:03;;;;;;;5.88;1.23;;;;;;;1.90;64.88;93488.00;5084624;28;20023;-74
2024/01/16 10:30:29;;;;;;;3.85;1.30;;;;;;;2.09;68.61;93486.34;5084243;28;20215;-65
2024/01/16 10:32:54;;;;;;;3.90;2.00;;;;;;;2.20;65.37;93485.25;5084031;28;20044;-65
2024/01/16 10:35:20;;;;;;;4.72;1.52;;;;;;;2.57;66.24;93491.13;5084086;28;20095;-65
2024/01/16 10:37:53;;;;;;;4.43;1.10;;;;;;;2.83;64.13;93481.25;5084157;28;20029;-64
2024/01/16 10:40:20;;;;;;;6.97;1.10;;;;;;;3.06;62.46;93486.88;5084190;28;20021;-64
2024/01/16 10:42:46;;;;;;;3.00;1.35;;;;;;;3.08;59.87;93485.53;5084219;28;20044;-64
2024/01/16 10:45:18;;;;;;;5.13;1.48;;;;;;;3.14;60.92;93492.31;5084094;28;20021;-64
2024/01/16 10:47:46;;;;;;;4.20;1.27;;;;;;;3.25;60.13;93495.66;5084141;28;20017;-64
2024/01/16 10:50:12;;;;;;;5.53;1.30;;;;;;;3.33;60.36;93495.06;5084136;28;20028;-64
2024/01/16 10:52:46;;;;;;;1.88;1.17;;;;;;;3.51;60.52;93493.59;5084035;28;20051;-63
2024/01/16 10:55:19;;;;;;;6.30;1.33;;;;;;;3.63;58.90;93480.06;5083704;28;20087;-65
2024/01/16 10:57:45;;;;;;;3.80;1.70;;;;;;;3.66;57.28;93483.97;5083798;28;20026;-64
2024/01/16 11:00:14;;;;;;;1.83;0.95;;;;;;;3.57;55.92;93481.16;5083908;28;20112;-64
2024/01/16 11:02:47;;;;;;;2.92;1.13;;;;;;;3.46;58.13;93492.84;5083967;28;20257;-64
2024/01/16 11:05:15;;;;;;;1.55;0.88;;;;;;;3.47;56.19;93497.06;5083799;28;20016;-64
2024/01/16 11:07:42;;;;;;;4.95;1.52;;;;;;;3.59;57.37;93494.84;5083857;28;20261;-64
2024/01/16 11:10:09;;;;;;;8.40;1.55;;;;;;;3.78;55.90;93503.63;5083696;28;20028;-64
2024/01/16 11:12:35;;;;;;;4.60;1.73;;;;;;;3.84;55.99;93503.59;5082399;28;20119;-64
2024/01/16 11:15:07;;;;;;;5.03;1.00;;;;;;;3.86;54.07;93506.72;5083633;28;20033;-64
2024/01/16 11:17:34;;;;;;;1.83;0.85;;;;;;;3.88;53.72;93508.00;5083532;28;20375;-64
2024/01/16 11:20:00;;;;;;;9.20;1.50;;;;;;;3.98;55.04;93499.22;5083470;28;20029;-64
2024/01/16 11:22:28;;;;;;;2.75;1.40;;;;;;;4.02;54.31;93502.88;5083492;28;20024;-64
2024/01/16 11:25:13;;;;;;;3.10;1.38;;;;;;;3.99;55.36;93508.72;5083445;28;20029;-64
2024/01/16 11:27:40;;;;;;;6.97;1.40;;;;;;;3.95;55.82;93513.75;5083587;28;20020;-64
2024/01/16 11:30:10;;;;;;;4.75;1.75;;;;;;;3.93;56.67;93504.53;5083553;28;20066;-64
2024/01/16 11:32:40;;;;;;;4.70;2.25;;;;;;;3.91;57.71;93510.09;5083450;28;20091;-64
2024/01/16 11:35:07;;;;;;;6.97;2.30;;;;;;;3.93;58.17;93510.59;5083020;28;20314;-64